sensor_id;sensor_type;location;lat;lon;timestamp;pressure;altitude;pressure_sealevel;temperature;humidity
70925;BME280;58577;52.410;13.242;2023-01-26T00:02:32;-12305.94;;;-1.34;100.00
70925;BME280;58577;52.410;13.242;2023-01-26T00:05:18;-12304.94;;;-1.40;100.00
70925;BME280;58577;52.410;13.242;2023-01-26T00:08:04;-12303.84;;;-1.46;100.00
70925;BME280;58577;52.410;13.242;2023-01-26T00:10:50;-12304.94;;;-1.40;100.00
70925;BME280;58577;52.410;13.242;2023-01-26T00:13:37;-12307.47;;;-1.26;100.00
70925;BME280;58577;52.410;13.242;2023-01-26T00:16:23;-12309.22;;;-1.16;100.00
70925;BME280;58577;52.410;13.242;2023-01-26T00:19:10;-12305.94;;;-1.34;100.00
70925;BME280;58577;52.410;13.242;2023-01-26T00:21:55;-12305.56;;;-1.36;100.00
70925;BME280;58577;52.410;13.242;2023-01-26T00:24:41;-12304.28;;;-1.44;100.00
70925;BME280;58577;52.410;13.242;2023-01-26T00:27:27;-12304.13;;;-1.45;100.00
70925;BME280;58577;52.410;13.242;2023-01-26T00:30:13;-12304.28;;;-1.44;100.00
70925;BME280;58577;52.410;13.242;2023-01-26T00:32:59;-12305.03;;;-1.40;100.00
70925;BME280;58577;52.410;13.242;2023-01-26T00:35:53;-12306.13;;;-1.33;100.00
70925;BME280;58577;52.410;13.242;2023-01-26T00:38:39;-12308.13;;;-1.22;100.00
70925;BME280;58577;52.410;13.242;2023-01-26T00:41:27;-12308.03;;;-1.23;100.00
70925;BME280;58577;52.410;13.242;2023-01-26T00:44:31;-12307.22;;;-1.27;100.00
70925;BME280;58577;52.410;13.242;2023-01-26T00:47:17;-12306.38;;;-1.32;100.00
70925;BME280;58577;52.410;13.242;2023-01-26T00:50:04;-12307.56;;;-1.25;100.00
70925;BME280;58577;52.410;13.242;2023-01-26T00:52:50;-12308.75;;;-1.19;100.00
70925;BME280;58577;52.410;13.242;2023-01-26T00:55:36;-12307.75;;;-1.24;100.00
70925;BME280;58577;52.410;13.242;2023-01-26T00:58:22;-12307.41;;;-1.26;100.00
70925;BME280;58577;52.410;13.242;2023-01-26T01:01:08;-12306.94;;;-1.29;100.00
70925;BME280;58577;52.410;13.242;2023-01-26T01:03:54;-12308.75;;;-1.19;100.00
70925;BME280;58577;52.410;13.242;2023-01-26T01:06:40;-12305.56;;;-1.36;100.00
70925;BME280;58577;52.410;13.242;2023-01-26T01:09:26;-12308.22;;;-1.22;100.00
70925;BME280;58577;52.410;13.242;2023-01-26T01:12:12;-12305.22;;;-1.39;100.00
70925;BME280;58577;52.410;13.242;2023-01-26T01:14:57;-12308.75;;;-1.19;100.00
70925;BME280;58577;52.410;13.242;2023-01-26T01:17:43;-12305.22;;;-1.39;100.00
70925;BME280;58577;52.410;13.242;2023-01-26T01:20:29;-12305.94;;;-1.34;100.00
70925;BME280;58577;52.410;13.242;2023-01-26T01:23:15;-12306.66;;;-1.30;100.00
70925;BME280;58577;52.410;13.242;2023-01-26T01:26:01;-12308.13;;;-1.22;100.00
70925;BME280;58577;52.410;13.242;2023-01-26T01:28:47;-12307.31;;;-1.27;100.00
70925;BME280;58577;52.410;13.242;2023-01-26T01:31:33;-12306.66;;;-1.30;100.00
70925;BME280;58577;52.410;13.242;2023-01-26T01:34:19;-12305.28;;;-1.38;100.00
70925;BME280;58577;52.410;13.242;2023-01-26T01:37:05;-12304.84;;;-1.41;100.00
70925;BME280;58577;52.410;13.242;2023-01-26T01:39:51;-12306.66;;;-1.30;100.00
70925;BME280;58577;52.410;13.242;2023-01-26T01:42:37;-12304.56;;;-1.42;100.00
70925;BME280;58577;52.410;13.242;2023-01-26T01:51:04;-12304.47;;;-1.43;100.00
70925;BME280;58577;52.410;13.242;2023-01-26T01:53:56;-12305.75;;;-1.35;100.00
70925;BME280;58577;52.410;13.242;2023-01-26T01:56:46;-12305.56;;;-1.36;100.00
70925;BME280;58577;52.410;13.242;2023-01-26T01:59:33;-12305.66;;;-1.36;100.00
70925;BME280;58577;52.410;13.242;2023-01-26T02:02:19;-12307.84;;;-1.24;100.00
70925;BME280;58577;52.410;13.242;2023-01-26T02:05:32;-12306.13;;;-1.33;100.00
70925;BME280;58577;52.410;13.242;2023-01-26T02:08:25;-12305.56;;;-1.36;100.00
70925;BME280;58577;52.410;13.242;2023-01-26T02:11:19;-12306.22;;;-1.33;100.00
70925;BME280;58577;52.410;13.242;2023-01-26T02:14:08;-12305.28;;;-1.38;100.00
70925;BME280;58577;52.410;13.242;2023-01-26T02:16:56;-12306.38;;;-1.32;100.00
70925;BME280;58577;52.410;13.242;2023-01-26T02:22:54;-12307.84;;;-1.24;100.00
70925;BME280;58577;52.410;13.242;2023-01-26T02:28:40;-12305.38;;;-1.38;100.00
70925;BME280;58577;52.410;13.242;2023-01-26T02:31:26;-12304.84;;;-1.41;100.00
70925;BME280;58577;52.410;13.242;2023-01-26T02:34:14;-12303.94;;;-1.46;100.00
70925;BME280;58577;52.410;13.242;2023-01-26T02:37:00;-12306.13;;;-1.33;100.00
70925;BME280;58577;52.410;13.242;2023-01-26T02:42:37;-12307.03;;;-1.28;100.00
70925;BME280;58577;52.410;13.242;2023-01-26T02:45:25;-12306.22;;;-1.33;100.00
70925;BME280;58577;52.410;13.242;2023-01-26T02:48:12;-12305.28;;;-1.38;100.00
70925;BME280;58577;52.410;13.242;2023-01-26T02:50:59;-12304.13;;;-1.45;100.00
70925;BME280;58577;52.410;13.242;2023-01-26T02:53:45;-12305.47;;;-1.37;100.00
70925;BME280;58577;52.410;13.242;2023-01-26T02:56:31;-12304.28;;;-1.44;100.00
70925;BME280;58577;52.410;13.242;2023-01-26T02:59:16;-12306.22;;;-1.33;100.00
70925;BME280;58577;52.410;13.242;2023-01-26T03:02:02;-12305.56;;;-1.36;100.00
70925;BME280;58577;52.410;13.242;2023-01-26T03:04:48;-12303.19;;;-1.50;100.00
70925;BME280;58577;52.410;13.242;2023-01-26T03:07:34;-12301.19;;;-1.61;100.00
70925;BME280;58577;52.410;13.242;2023-01-26T03:10:20;-12301.84;;;-1.58;100.00
70925;BME280;58577;52.410;13.242;2023-01-26T03:13:10;-12301.75;;;-1.58;100.00
70925;BME280;58577;52.410;13.242;2023-01-26T03:15:56;-12301.19;;;-1.61;100.00
70925;BME280;58577;52.410;13.242;2023-01-26T03:18:47;-12302.28;;;-1.55;100.00
70925;BME280;58577;52.410;13.242;2023-01-26T03:21:47;-12302.28;;;-1.55;100.00
70925;BME280;58577;52.410;13.242;2023-01-26T03:24:52;-12301.19;;;-1.61;100.00
70925;BME280;58577;52.410;13.242;2023-01-26T03:27:56;-12306.66;;;-1.30;100.00
70925;BME280;58577;52.410;13.242;2023-01-26T03:30:42;-12302.09;;;-1.56;100.00
70925;BME280;58577;52.410;13.242;2023-01-26T03:33:28;-12304.22;;;-1.44;100.00
70925;BME280;58577;52.410;13.242;2023-01-26T03:36:14;-12303.13;;;-1.50;100.00
70925;BME280;58577;52.410;13.242;2023-01-26T03:39:00;-12305.28;;;-1.38;100.00
70925;BME280;58577;52.410;13.242;2023-01-26T03:41:47;-12304.03;;;-1.45;100.00
70925;BME280;58577;52.410;13.242;2023-01-26T03:44:51;-12303.03;;;-1.51;100.00
70925;BME280;58577;52.410;13.242;2023-01-26T03:48:09;-12303.56;;;-1.48;100.00
70925;BME280;58577;52.410;13.242;2023-01-26T03:51:13;-12301.84;;;-1.58;100.00
70925;BME280;58577;52.410;13.242;2023-01-26T03:54:18;-12301.56;;;-1.59;100.00
70925;BME280;58577;52.410;13.242;2023-01-26T03:57:22;-12302.38;;;-1.54;100.00
70925;BME280;58577;52.410;13.242;2023-01-26T04:00:09;-12300.00;;;-1.68;100.00
70925;BME280;58577;52.410;13.242;2023-01-26T04:02:58;-12301.56;;;-1.59;100.00
70925;BME280;58577;52.410;13.242;2023-01-26T04:06:02;-12300.47;;;-1.65;100.00
70925;BME280;58577;52.410;13.242;2023-01-26T04:09:07;-12305.84;;;-1.35;100.00
70925;BME280;58577;52.410;13.242;2023-01-26T04:11:53;-12303.66;;;-1.47;100.00
70925;BME280;58577;52.410;13.242;2023-01-26T04:14:39;-12302.28;;;-1.55;100.00
70925;BME280;58577;52.410;13.242;2023-01-26T04:17:45;-12302.56;;;-1.53;100.00
70925;BME280;58577;52.410;13.242;2023-01-26T04:20:50;-12303.94;;;-1.46;100.00
70925;BME280;58577;52.410;13.242;2023-01-26T04:23:55;-12299.66;;;-1.70;100.00
70925;BME280;58577;52.410;13.242;2023-01-26T04:26:43;-12301.38;;;-1.60;100.00
70925;BME280;58577;52.410;13.242;2023-01-26T04:29:36;-12300.94;;;-1.63;100.00
70925;BME280;58577;52.410;13.242;2023-01-26T04:32:22;-12300.56;;;-1.65;100.00
70925;BME280;58577;52.410;13.242;2023-01-26T04:35:08;-12303.56;;;-1.48;100.00
70925;BME280;58577;52.410;13.242;2023-01-26T04:37:56;-12304.84;;;-1.41;100.00
70925;BME280;58577;52.410;13.242;2023-01-26T04:40:42;-12301.09;;;-1.62;100.00
70925;BME280;58577;52.410;13.242;2023-01-26T04:43:29;-12301.03;;;-1.62;100.00
70925;BME280;58577;52.410;13.242;2023-01-26T04:46:15;-12303.75;;;-1.47;100.00
70925;BME280;58577;52.410;13.242;2023-01-26T04:49:02;-12300.75;;;-1.64;100.00
70925;BME280;58577;52.410;13.242;2023-01-26T04:51:48;-12299.00;;;-1.73;100.00
70925;BME280;58577;52.410;13.242;2023-01-26T04:54:34;-12299.66;;;-1.70;100.00
70925;BME280;58577;52.410;13.242;2023-01-26T04:57:20;-12301.75;;;-1.58;100.00
70925;BME280;58577;52.410;13.242;2023-01-26T05:00:10;-12301.56;;;-1.59;100.00
70925;BME280;58577;52.410;13.242;2023-01-26T05:02:56;-12302.56;;;-1.53;100.00
70925;BME280;58577;52.410;13.242;2023-01-26T05:05:42;-12300.66;;;-1.64;100.00
70925;BME280;58577;52.410;13.242;2023-01-26T05:08:28;-12301.09;;;-1.62;100.00
70925;BME280;58577;52.410;13.242;2023-01-26T05:11:14;-12302.19;;;-1.55;100.00
70925;BME280;58577;52.410;13.242;2023-01-26T05:14:05;-12302.84;;;-1.52;100.00
70925;BME280;58577;52.410;13.242;2023-01-26T05:17:21;-12301.03;;;-1.62;100.00
70925;BME280;58577;52.410;13.242;2023-01-26T05:20:13;-12300.19;;;-1.67;100.00
70925;BME280;58577;52.410;13.242;2023-01-26T05:23:15;-12304.66;;;-1.42;100.00
70925;BME280;58577;52.410;13.242;2023-01-26T05:26:21;-12302.75;;;-1.52;100.00
70925;BME280;58577;52.410;13.242;2023-01-26T05:29:22;-12303.75;;;-1.47;100.00
70925;BME280;58577;52.410;13.242;2023-01-26T05:32:08;-12302.28;;;-1.55;100.00
70925;BME280;58577;52.410;13.242;2023-01-26T05:34:55;-12303.66;;;-1.47;100.00
70925;BME280;58577;52.410;13.242;2023-01-26T05:37:41;-12304.13;;;-1.45;100.00
70925;BME280;58577;52.410;13.242;2023-01-26T05:40:28;-12300.94;;;-1.63;100.00
70925;BME280;58577;52.410;13.242;2023-01-26T05:43:14;-12300.66;;;-1.64;100.00
70925;BME280;58577;52.410;13.242;2023-01-26T05:46:26;-12302.47;;;-1.54;100.00
70925;BME280;58577;52.410;13.242;2023-01-26T05:49:11;-12300.38;;;-1.66;100.00
70925;BME280;58577;52.410;13.242;2023-01-26T05:51:58;-12300.56;;;-1.65;100.00
70925;BME280;58577;52.410;13.242;2023-01-26T05:54:44;-12300.47;;;-1.65;100.00
70925;BME280;58577;52.410;13.242;2023-01-26T05:57:30;-12303.84;;;-1.46;100.00
70925;BME280;58577;52.410;13.242;2023-01-26T06:00:22;-12304.22;;;-1.44;100.00
70925;BME280;58577;52.410;13.242;2023-01-26T06:03:16;-12302.47;;;-1.54;100.00
70925;BME280;58577;52.410;13.242;2023-01-26T06:06:02;-12301.47;;;-1.60;100.00
70925;BME280;58577;52.410;13.242;2023-01-26T06:08:56;-12303.13;;;-1.50;100.00
70925;BME280;58577;52.410;13.242;2023-01-26T06:12:08;-12302.09;;;-1.56;100.00
70925;BME280;58577;52.410;13.242;2023-01-26T06:15:06;-12302.75;;;-1.52;100.00
70925;BME280;58577;52.410;13.242;2023-01-26T06:18:01;-12304.13;;;-1.45;100.00
70925;BME280;58577;52.410;13.242;2023-01-26T06:20:47;-12303.38;;;-1.49;100.00
70925;BME280;58577;52.410;13.242;2023-01-26T06:23:33;-12303.19;;;-1.50;100.00
70925;BME280;58577;52.410;13.242;2023-01-26T06:26:21;-12302.56;;;-1.53;100.00
70925;BME280;58577;52.410;13.242;2023-01-26T06:29:09;-12301.19;;;-1.61;100.00
70925;BME280;58577;52.410;13.242;2023-01-26T06:31:55;-12301.38;;;-1.60;100.00
70925;BME280;58577;52.410;13.242;2023-01-26T06:34:40;-12300.38;;;-1.66;100.00
70925;BME280;58577;52.410;13.242;2023-01-26T06:37:26;-12302.47;;;-1.54;100.00
70925;BME280;58577;52.410;13.242;2023-01-26T06:40:13;-12301.38;;;-1.60;100.00
70925;BME280;58577;52.410;13.242;2023-01-26T06:42:59;-12302.03;;;-1.56;100.00
70925;BME280;58577;52.410;13.242;2023-01-26T06:45:45;-12301.56;;;-1.59;100.00
70925;BME280;58577;52.410;13.242;2023-01-26T06:48:34;-12302.66;;;-1.53;100.00
70925;BME280;58577;52.410;13.242;2023-01-26T06:54:26;-12300.00;;;-1.68;100.00
70925;BME280;58577;52.410;13.242;2023-01-26T06:57:38;-12301.19;;;-1.61;100.00
70925;BME280;58577;52.410;13.242;2023-01-26T07:00:33;-12300.28;;;-1.66;100.00
70925;BME280;58577;52.410;13.242;2023-01-26T07:03:43;-12300.75;;;-1.64;100.00
70925;BME280;58577;52.410;13.242;2023-01-26T07:06:28;-12299.66;;;-1.70;100.00
70925;BME280;58577;52.410;13.242;2023-01-26T07:09:14;-12300.19;;;-1.67;100.00
70925;BME280;58577;52.410;13.242;2023-01-26T07:12:00;-12300.19;;;-1.67;100.00
70925;BME280;58577;52.410;13.242;2023-01-26T07:14:46;-12299.66;;;-1.70;100.00
70925;BME280;58577;52.410;13.242;2023-01-26T07:17:31;-12300.66;;;-1.64;100.00
70925;BME280;58577;52.410;13.242;2023-01-26T07:20:17;-12299.09;;;-1.73;100.00
70925;BME280;58577;52.410;13.242;2023-01-26T07:23:03;-12296.09;;;-1.90;100.00
70925;BME280;58577;52.410;13.242;2023-01-26T07:25:49;-12296.91;;;-1.85;100.00
70925;BME280;58577;52.410;13.242;2023-01-26T07:28:35;-12299.84;;;-1.69;100.00
70925;BME280;58577;52.410;13.242;2023-01-26T07:31:21;-12299.75;;;-1.69;100.00
70925;BME280;58577;52.410;13.242;2023-01-26T07:34:08;-12298.81;;;-1.74;100.00
70925;BME280;58577;52.410;13.242;2023-01-26T07:36:53;-12297.19;;;-1.84;100.00
70925;BME280;58577;52.410;13.242;2023-01-26T07:39:39;-12298.56;;;-1.76;100.00
70925;BME280;58577;52.410;13.242;2023-01-26T07:42:25;-12297.91;;;-1.80;100.00
70925;BME280;58577;52.410;13.242;2023-01-26T07:45:23;-12296.19;;;-1.89;100.00
70925;BME280;58577;52.410;13.242;2023-01-26T07:48:08;-12297.72;;;-1.81;100.00
70925;BME280;58577;52.410;13.242;2023-01-26T07:50:57;-12299.66;;;-1.70;100.00
70925;BME280;58577;52.410;13.242;2023-01-26T07:53:44;-12297.72;;;-1.81;100.00
70925;BME280;58577;52.410;13.242;2023-01-26T07:56:34;-12298.00;;;-1.79;100.00
70925;BME280;58577;52.410;13.242;2023-01-26T07:59:21;-12298.19;;;-1.78;100.00
70925;BME280;58577;52.410;13.242;2023-01-26T08:02:09;-12295.91;;;-1.91;100.00
70925;BME280;58577;52.410;13.242;2023-01-26T08:04:55;-12298.66;;;-1.75;100.00
70925;BME280;58577;52.410;13.242;2023-01-26T08:07:41;-12298.28;;;-1.77;100.00
70925;BME280;58577;52.410;13.242;2023-01-26T08:10:27;-12300.00;;;-1.68;100.00
70925;BME280;58577;52.410;13.242;2023-01-26T08:13:16;-12299.38;;;-1.71;100.00
70925;BME280;58577;52.410;13.242;2023-01-26T08:16:04;-12297.72;;;-1.81;100.00
70925;BME280;58577;52.410;13.242;2023-01-26T08:18:50;-12299.00;;;-1.73;100.00
70925;BME280;58577;52.410;13.242;2023-01-26T08:21:36;-12298.81;;;-1.74;100.00
70925;BME280;58577;52.410;13.242;2023-01-26T08:24:22;-12296.91;;;-1.85;100.00
70925;BME280;58577;52.410;13.242;2023-01-26T08:27:08;-12295.09;;;-1.95;100.00
70925;BME280;58577;52.410;13.242;2023-01-26T08:29:54;-12294.81;;;-1.97;100.00
70925;BME280;58577;52.410;13.242;2023-01-26T08:32:40;-12296.19;;;-1.89;100.00
70925;BME280;58577;52.410;13.242;2023-01-26T08:35:26;-12297.09;;;-1.84;100.00
70925;BME280;58577;52.410;13.242;2023-01-26T08:38:13;-12298.81;;;-1.74;100.00
70925;BME280;58577;52.410;13.242;2023-01-26T08:41:00;-12297.38;;;-1.83;100.00
70925;BME280;58577;52.410;13.242;2023-01-26T08:43:46;-12297.00;;;-1.85;100.00
70925;BME280;58577;52.410;13.242;2023-01-26T08:46:32;-12299.75;;;-1.69;100.00
70925;BME280;58577;52.410;13.242;2023-01-26T08:49:18;-12299.19;;;-1.72;100.00
70925;BME280;58577;52.410;13.242;2023-01-26T08:52:04;-12298.81;;;-1.74;100.00
70925;BME280;58577;52.410;13.242;2023-01-26T08:54:50;-12298.66;;;-1.75;100.00
70925;BME280;58577;52.410;13.242;2023-01-26T08:57:35;-12297.38;;;-1.83;100.00
70925;BME280;58577;52.410;13.242;2023-01-26T09:00:22;-12296.38;;;-1.88;100.00
70925;BME280;58577;52.410;13.242;2023-01-26T09:03:08;-12297.72;;;-1.81;100.00
70925;BME280;58577;52.410;13.242;2023-01-26T09:05:58;-12295.91;;;-1.91;100.00
70925;BME280;58577;52.410;13.242;2023-01-26T09:08:44;-12298.56;;;-1.76;100.00
70925;BME280;58577;52.410;13.242;2023-01-26T09:11:30;-12297.19;;;-1.84;100.00
70925;BME280;58577;52.410;13.242;2023-01-26T09:14:16;-12297.19;;;-1.84;100.00
70925;BME280;58577;52.410;13.242;2023-01-26T09:17:02;-12295.91;;;-1.91;100.00
70925;BME280;58577;52.410;13.242;2023-01-26T09:19:48;-12294.81;;;-1.97;100.00
70925;BME280;58577;52.410;13.242;2023-01-26T09:22:34;-12296.00;;;-1.90;100.00
70925;BME280;58577;52.410;13.242;2023-01-26T09:25:20;-12297.81;;;-1.80;100.00
70925;BME280;58577;52.410;13.242;2023-01-26T09:28:06;-12297.28;;;-1.83;100.00
70925;BME280;58577;52.410;13.242;2023-01-26T09:30:51;-12297.47;;;-1.82;100.00
70925;BME280;58577;52.410;13.242;2023-01-26T09:33:37;-12295.47;;;-1.93;100.00
70925;BME280;58577;52.410;13.242;2023-01-26T09:36:23;-12294.28;;;-2.00;100.00
70925;BME280;58577;52.410;13.242;2023-01-26T09:39:09;-12293.91;;;-2.02;100.00
70925;BME280;58577;52.410;13.242;2023-01-26T09:41:57;-12295.91;;;-1.91;100.00
70925;BME280;58577;52.410;13.242;2023-01-26T09:45:08;-12297.09;;;-1.84;100.00
70925;BME280;58577;52.410;13.242;2023-01-26T09:50:59;-12296.19;;;-1.89;100.00
70925;BME280;58577;52.410;13.242;2023-01-26T09:54:03;-12297.00;;;-1.85;100.00
70925;BME280;58577;52.410;13.242;2023-01-26T09:56:50;-12297.19;;;-1.84;100.00
70925;BME280;58577;52.410;13.242;2023-01-26T09:59:45;-12299.66;;;-1.70;100.00
70925;BME280;58577;52.410;13.242;2023-01-26T10:05:31;-12296.81;;;-1.86;100.00
70925;BME280;58577;52.410;13.242;2023-01-26T10:08:24;-12296.66;;;-1.87;100.00
70925;BME280;58577;52.410;13.242;2023-01-26T10:14:13;-12299.66;;;-1.70;100.00
70925;BME280;58577;52.410;13.242;2023-01-26T10:17:02;-12297.56;;;-1.82;100.00
70925;BME280;58577;52.410;13.242;2023-01-26T10:19:51;-12298.19;;;-1.78;100.00
70925;BME280;58577;52.410;13.242;2023-01-26T10:22:43;-12295.63;;;-1.92;100.00
70925;BME280;58577;52.410;13.242;2023-01-26T10:25:35;-12295.56;;;-1.93;100.00
70925;BME280;58577;52.410;13.242;2023-01-26T10:28:28;-12296.81;;;-1.86;100.00
70925;BME280;58577;52.410;13.242;2023-01-26T10:31:19;-12298.19;;;-1.78;100.00
70925;BME280;58577;52.410;13.242;2023-01-26T10:34:15;-12302.19;;;-1.55;100.00
70925;BME280;58577;52.410;13.242;2023-01-26T10:37:18;-12300.00;;;-1.68;100.00
70925;BME280;58577;52.410;13.242;2023-01-26T10:40:05;-12299.38;;;-1.71;100.00
70925;BME280;58577;52.410;13.242;2023-01-26T10:42:56;-12296.81;;;-1.86;100.00
70925;BME280;58577;52.410;13.242;2023-01-26T10:45:46;-12298.81;;;-1.74;100.00
70925;BME280;58577;52.410;13.242;2023-01-26T10:48:32;-12298.66;;;-1.75;100.00
70925;BME280;58577;52.410;13.242;2023-01-26T10:51:38;-12299.38;;;-1.71;100.00
70925;BME280;58577;52.410;13.242;2023-01-26T10:54:25;-12298.09;;;-1.79;100.00
70925;BME280;58577;52.410;13.242;2023-01-26T10:57:19;-12298.56;;;-1.76;100.00
70925;BME280;58577;52.410;13.242;2023-01-26T11:00:25;-12300.66;;;-1.64;100.00
70925;BME280;58577;52.410;13.242;2023-01-26T11:06:16;-12298.66;;;-1.75;100.00
70925;BME280;58577;52.410;13.242;2023-01-26T11:12:03;-12300.66;;;-1.64;100.00
70925;BME280;58577;52.410;13.242;2023-01-26T11:15:04;-12301.19;;;-1.61;100.00
70925;BME280;58577;52.410;13.242;2023-01-26T11:18:04;-12300.94;;;-1.63;100.00
70925;BME280;58577;52.410;13.242;2023-01-26T11:21:05;-12302.47;;;-1.54;100.00
70925;BME280;58577;52.410;13.242;2023-01-26T11:30:31;-12302.84;;;-1.52;100.00
70925;BME280;58577;52.410;13.242;2023-01-26T11:39:29;-12300.09;;;-1.67;100.00
70925;BME280;58577;52.410;13.242;2023-01-26T11:42:32;-12298.66;;;-1.75;100.00
70925;BME280;58577;52.410;13.242;2023-01-26T11:57:50;-12302.38;;;-1.54;100.00
70925;BME280;58577;52.410;13.242;2023-01-26T12:03:41;-12303.38;;;-1.49;100.00
70925;BME280;58577;52.410;13.242;2023-01-26T12:06:45;-12302.56;;;-1.53;100.00
70925;BME280;58577;52.410;13.242;2023-01-26T12:09:36;-12304.47;;;-1.43;100.00
70925;BME280;58577;52.410;13.242;2023-01-26T12:12:38;-12302.47;;;-1.54;100.00
70925;BME280;58577;52.410;13.242;2023-01-26T12:15:32;-12304.22;;;-1.44;100.00
70925;BME280;58577;52.410;13.242;2023-01-26T12:18:41;-12302.84;;;-1.52;100.00
70925;BME280;58577;52.410;13.242;2023-01-26T12:21:30;-12302.84;;;-1.52;100.00
70925;BME280;58577;52.410;13.242;2023-01-26T12:24:35;-12305.13;;;-1.39;100.00
70925;BME280;58577;52.410;13.242;2023-01-26T12:27:39;-12301.19;;;-1.61;100.00
70925;BME280;58577;52.410;13.242;2023-01-26T12:30:33;-12301.03;;;-1.62;100.00
70925;BME280;58577;52.410;13.242;2023-01-26T12:33:20;-12302.28;;;-1.55;100.00
70925;BME280;58577;52.410;13.242;2023-01-26T12:39:15;-12307.56;;;-1.25;100.00
70925;BME280;58577;52.410;13.242;2023-01-26T12:42:18;-12304.22;;;-1.44;100.00
70925;BME280;58577;52.410;13.242;2023-01-26T12:45:13;-12303.19;;;-1.50;100.00
70925;BME280;58577;52.410;13.242;2023-01-26T12:51:36;-12303.56;;;-1.48;100.00
70925;BME280;58577;52.410;13.242;2023-01-26T12:54:41;-12305.28;;;-1.38;100.00
70925;BME280;58577;52.410;13.242;2023-01-26T12:57:39;-12304.22;;;-1.44;100.00
70925;BME280;58577;52.410;13.242;2023-01-26T13:00:37;-12302.94;;;-1.51;100.00
70925;BME280;58577;52.410;13.242;2023-01-26T13:03:28;-12304.47;;;-1.43;100.00
70925;BME280;58577;52.410;13.242;2023-01-26T13:09:21;-12306.47;;;-1.31;100.00
70925;BME280;58577;52.410;13.242;2023-01-26T13:12:46;-12306.31;;;-1.32;100.00
70925;BME280;58577;52.410;13.242;2023-01-26T13:15:32;-12307.56;;;-1.25;100.00
70925;BME280;58577;52.410;13.242;2023-01-26T13:18:18;-12308.03;;;-1.23;100.00
70925;BME280;58577;52.410;13.242;2023-01-26T13:33:20;-12306.03;;;-1.34;100.00
70925;BME280;58577;52.410;13.242;2023-01-26T13:36:15;-12304.03;;;-1.45;100.00
70925;BME280;58577;52.410;13.242;2023-01-26T13:39:10;-12306.22;;;-1.33;100.00
70925;BME280;58577;52.410;13.242;2023-01-26T13:41:59;-12304.66;;;-1.42;100.00
70925;BME280;58577;52.410;13.242;2023-01-26T13:45:34;-12305.75;;;-1.35;100.00
70925;BME280;58577;52.410;13.242;2023-01-26T13:47:55;-12306.31;;;-1.32;100.00
70925;BME280;58577;52.410;13.242;2023-01-26T13:50:45;-12309.31;;;-1.15;100.00
70925;BME280;58577;52.410;13.242;2023-01-26T13:53:40;-12306.56;;;-1.31;100.00
70925;BME280;58577;52.410;13.242;2023-01-26T13:56:35;-12306.38;;;-1.32;100.00
70925;BME280;58577;52.410;13.242;2023-01-26T13:59:21;-12304.47;;;-1.43;100.00
70925;BME280;58577;52.410;13.242;2023-01-26T14:02:23;-12303.75;;;-1.47;100.00
70925;BME280;58577;52.410;13.242;2023-01-26T14:05:20;-12305.75;;;-1.35;100.00
70925;BME280;58577;52.410;13.242;2023-01-26T14:08:12;-12303.84;;;-1.46;100.00
70925;BME280;58577;52.410;13.242;2023-01-26T14:11:01;-12302.38;;;-1.54;100.00
70925;BME280;58577;52.410;13.242;2023-01-26T14:13:51;-12301.28;;;-1.61;100.00
70925;BME280;58577;52.410;13.242;2023-01-26T14:16:37;-12302.38;;;-1.54;100.00
70925;BME280;58577;52.410;13.242;2023-01-26T14:19:24;-12304.28;;;-1.44;100.00
70925;BME280;58577;52.410;13.242;2023-01-26T14:22:11;-12303.03;;;-1.51;100.00
70925;BME280;58577;52.410;13.242;2023-01-26T14:24:58;-12303.75;;;-1.47;100.00
70925;BME280;58577;52.410;13.242;2023-01-26T14:27:43;-12303.66;;;-1.47;100.00
70925;BME280;58577;52.410;13.242;2023-01-26T14:30:31;-12301.75;;;-1.58;100.00
70925;BME280;58577;52.410;13.242;2023-01-26T14:33:19;-12302.47;;;-1.54;100.00
70925;BME280;58577;52.410;13.242;2023-01-26T14:36:13;-12303.47;;;-1.48;100.00
70925;BME280;58577;52.410;13.242;2023-01-26T14:38:59;-12303.13;;;-1.50;100.00
70925;BME280;58577;52.410;13.242;2023-01-26T14:41:46;-12303.75;;;-1.47;100.00
70925;BME280;58577;52.410;13.242;2023-01-26T14:44:33;-12302.66;;;-1.53;100.00
70925;BME280;58577;52.410;13.242;2023-01-26T14:47:23;-12301.19;;;-1.61;100.00
70925;BME280;58577;52.410;13.242;2023-01-26T14:50:25;-12300.00;;;-1.68;100.00
70925;BME280;58577;52.410;13.242;2023-01-26T14:53:19;-12301.19;;;-1.61;100.00
70925;BME280;58577;52.410;13.242;2023-01-26T14:56:16;-12298.66;;;-1.75;100.00
70925;BME280;58577;52.410;13.242;2023-01-26T14:59:04;-12300.28;;;-1.66;100.00
70925;BME280;58577;52.410;13.242;2023-01-26T15:02:01;-12299.91;;;-1.68;100.00
70925;BME280;58577;52.410;13.242;2023-01-26T15:04:55;-12297.66;;;-1.81;100.00
70925;BME280;58577;52.410;13.242;2023-01-26T15:08:02;-12297.00;;;-1.85;100.00
70925;BME280;58577;52.410;13.242;2023-01-26T15:13:34;-12300.09;;;-1.67;100.00
70925;BME280;58577;52.410;13.242;2023-01-26T15:16:23;-12298.38;;;-1.77;100.00
70925;BME280;58577;52.410;13.242;2023-01-26T15:19:21;-12297.66;;;-1.81;100.00
70925;BME280;58577;52.410;13.242;2023-01-26T15:22:24;-12301.03;;;-1.62;100.00
70925;BME280;58577;52.410;13.242;2023-01-26T15:25:19;-12299.84;;;-1.69;100.00
70925;BME280;58577;52.410;13.242;2023-01-26T15:28:15;-12298.81;;;-1.74;100.00
70925;BME280;58577;52.410;13.242;2023-01-26T15:31:02;-12296.91;;;-1.85;100.00
70925;BME280;58577;52.410;13.242;2023-01-26T15:33:52;-12295.56;;;-1.93;100.00
70925;BME280;58577;52.410;13.242;2023-01-26T15:36:49;-12297.19;;;-1.84;100.00
70925;BME280;58577;52.410;13.242;2023-01-26T15:39:35;-12300.28;;;-1.66;100.00
70925;BME280;58577;52.410;13.242;2023-01-26T15:42:23;-12298.00;;;-1.79;100.00
70925;BME280;58577;52.410;13.242;2023-01-26T15:45:24;-12297.81;;;-1.80;100.00
70925;BME280;58577;52.410;13.242;2023-01-26T15:48:12;-12295.09;;;-1.95;100.00
70925;BME280;58577;52.410;13.242;2023-01-26T15:50:57;-12296.81;;;-1.86;100.00
70925;BME280;58577;52.410;13.242;2023-01-26T15:53:43;-12296.00;;;-1.90;100.00
70925;BME280;58577;52.410;13.242;2023-01-26T15:56:29;-12294.72;;;-1.98;100.00